Time;durP1;ratioP1;P1;durP2;ratioP2;P2;SDS_P1;SDS_P2;PMS_P1;PMS_P2;Temp;Humidity;BMP_temperature;BMP_pressure;BME280_temperature;BME280_humidity;BME280_pressure;Samples;Min_cycle;Max_cycle;Signal;HPM_P1;HPM_P2
2023/09/22 00:00:41;;;;;;;16.75;4.13;;;18.10;99.90;;;;;;5091021;28;20025;-65
2023/09/22 00:03:08;;;;;;;17.90;3.90;;;18.10;99.90;;;;;;5091151;28;20413;-64
2023/09/22 00:05:35;;;;;;;11.63;3.90;;;18.00;99.90;;;;;;5091337;28;20407;-65
2023/09/22 00:08:01;;;;;;;11.85;3.95;;;18.00;99.90;;;;;;5090988;28;20059;-64
2023/09/22 00:10:27;;;;;;;13.20;3.78;;;18.20;99.90;;;;;;5091048;28;20032;-64
2023/09/22 00:12:54;;;;;;;15.48;4.30;;;18.30;99.90;;;;;;5091803;28;20020;-64
2023/09/22 00:15:21;;;;;;;12.38;3.92;;;18.40;99.90;;;;;;5095173;28;20448;-64
2023/09/22 00:17:47;;;;;;;14.85;3.88;;;18.40;99.90;;;;;;5095415;28;20059;-64
2023/09/22 00:20:15;;;;;;;14.60;3.85;;;18.60;99.90;;;;;;5095373;28;20058;-64
2023/09/22 00:22:44;;;;;;;14.77;3.88;;;18.60;99.90;;;;;;5094956;28;20443;-64
2023/09/22 00:25:10;;;;;;;12.20;3.53;;;18.70;99.90;;;;;;5095312;28;20024;-65
2023/09/22 00:27:37;;;;;;;14.68;3.88;;;18.70;99.90;;;;;;5094695;28;20032;-65
2023/09/22 00:30:04;;;;;;;17.08;4.30;;;18.50;99.90;;;;;;5095029;28;20020;-65
2023/09/22 00:32:30;;;;;;;13.70;3.80;;;18.30;99.90;;;;;;5094911;28;20028;-65
2023/09/22 00:34:56;;;;;;;12.15;3.65;;;18.20;99.90;;;;;;5094917;28;20483;-64
2023/09/22 00:37:22;;;;;;;12.25;3.83;;;18.10;99.90;;;;;;5095079;28;20486;-64
2023/09/22 00:39:48;;;;;;;14.18;3.90;;;18.20;99.90;;;;;;5094627;28;20039;-65
2023/09/22 00:42:13;;;;;;;13.57;3.70;;;18.20;99.90;;;;;;5094331;28;20478;-65
2023/09/22 00:44:39;;;;;;;14.00;3.92;;;18.20;99.90;;;;;;5094697;28;20020;-65
2023/09/22 00:47:07;;;;;;;12.68;3.38;;;18.00;99.90;;;;;;5094534;28;20039;-65
2023/09/22 00:49:35;;;;;;;10.93;3.03;;;17.90;99.90;;;;;;5094836;28;20077;-65
2023/09/22 00:52:02;;;;;;;8.45;2.92;;;17.80;99.90;;;;;;5094529;28;20034;-64
2023/09/22 00:54:28;;;;;;;8.13;2.72;;;17.70;99.90;;;;;;5094314;28;20024;-64
2023/09/22 00:56:54;;;;;;;9.45;3.20;;;17.60;99.90;;;;;;5094186;28;20513;-65
2023/09/22 00:59:21;;;;;;;11.23;3.25;;;17.50;99.90;;;;;;5094355;28;20024;-65
2023/09/22 01:01:47;;;;;;;12.82;3.35;;;17.40;99.90;;;;;;5094389;28;20044;-65
2023/09/22 01:04:13;;;;;;;12.50;3.08;;;17.30;99.90;;;;;;5094247;28;20107;-65
2023/09/22 01:06:39;;;;;;;13.45;3.63;;;17.30;99.90;;;;;;5092740;28;20044;-65
2023/09/22 01:09:09;;;;;;;12.45;3.10;;;17.30;99.90;;;;;;5094053;28;20024;-65
2023/09/22 01:11:35;;;;;;;13.52;3.30;;;17.40;99.90;;;;;;5093766;28;20490;-65
2023/09/22 01:14:02;;;;;;;14.35;4.00;;;17.30;99.90;;;;;;5094090;28;20505;-65
2023/09/22 01:16:29;;;;;;;11.00;3.10;;;17.30;99.90;;;;;;5094351;28;20081;-65
2023/09/22 01:18:56;;;;;;;11.30;3.00;;;17.30;99.90;;;;;;5094020;28;20055;-64
2023/09/22 01:21:29;;;;;;;12.85;3.75;;;17.40;99.90;;;;;;5093863;28;20032;-65
2023/09/22 01:23:54;;;;;;;11.75;3.30;;;17.50;99.90;;;;;;5093413;28;20023;-64
2023/09/22 01:26:23;;;;;;;14.45;3.80;;;17.50;99.90;;;;;;5093448;28;20028;-64
2023/09/22 01:28:49;;;;;;;11.57;3.53;;;17.40;99.90;;;;;;5093881;28;20099;-65
2023/09/22 01:31:15;;;;;;;10.15;3.17;;;17.50;99.90;;;;;;5093795;28;20035;-63
2023/09/22 01:33:41;;;;;;;12.60;3.35;;;17.40;99.90;;;;;;5093802;28;20103;-65
2023/09/22 01:36:07;;;;;;;10.32;3.35;;;17.40;99.90;;;;;;5093837;28;20067;-65
2023/09/22 01:38:33;;;;;;;10.05;3.58;;;17.30;99.90;;;;;;5093553;28;20047;-64
2023/09/22 01:40:58;;;;;;;12.13;3.50;;;17.30;99.90;;;;;;5093222;28;20027;-64
2023/09/22 01:43:24;;;;;;;13.73;4.30;;;17.30;99.90;;;;;;5093466;28;20047;-65
2023/09/22 01:45:50;;;;;;;12.52;3.63;;;17.30;99.90;;;;;;5093802;28;20058;-64
2023/09/22 01:48:16;;;;;;;16.05;4.65;;;17.60;99.90;;;;;;5093425;28;20028;-64
2023/09/22 01:50:42;;;;;;;14.57;4.25;;;17.90;99.90;;;;;;5093376;28;20024;-65
2023/09/22 01:53:10;;;;;;;17.85;4.45;;;17.90;99.90;;;;;;5093223;28;20028;-65
2023/09/22 01:55:37;;;;;;;14.98;4.18;;;18.00;99.90;;;;;;5092955;28;20028;-64
2023/09/22 01:58:04;;;;;;;17.30;4.50;;;18.10;99.90;;;;;;5093455;28;20032;-64
2023/09/22 02:00:31;;;;;;;18.20;4.68;;;18.30;99.90;;;;;;5093020;28;20024;-64
2023/09/22 02:02:57;;;;;;;11.00;3.75;;;18.30;99.90;;;;;;5093039;28;20383;-65
2023/09/22 02:05:23;;;;;;;12.05;4.10;;;18.30;99.90;;;;;;5092887;28;20454;-65
2023/09/22 02:07:49;;;;;;;13.65;4.03;;;18.30;99.90;;;;;;5093069;28;20098;-65
2023/09/22 02:10:15;;;;;;;11.80;3.97;;;18.30;99.90;;;;;;5092715;28;20020;-65
2023/09/22 02:12:43;;;;;;;14.50;3.63;;;18.40;99.90;;;;;;5092966;28;20028;-65
2023/09/22 02:15:09;;;;;;;12.50;3.33;;;18.50;99.90;;;;;;5092915;28;20496;-65
2023/09/22 02:17:40;;;;;;;13.05;3.17;;;18.50;99.90;;;;;;5093097;28;20381;-65
2023/09/22 02:20:18;;;;;;;10.73;3.35;;;18.40;99.90;;;;;;5092580;28;20820;-64
2023/09/22 02:22:47;;;;;;;9.73;2.83;;;18.40;99.90;;;;;;5092603;28;20589;-64
2023/09/22 02:25:19;;;;;;;12.15;3.15;;;18.20;99.90;;;;;;5092713;28;20024;-65
2023/09/22 02:27:50;;;;;;;10.43;3.20;;;18.00;99.90;;;;;;5092660;28;20028;-64
2023/09/22 02:30:16;;;;;;;9.85;3.00;;;18.00;99.90;;;;;;5092584;28;20032;-65
2023/09/22 02:32:49;;;;;;;12.05;3.17;;;17.90;99.90;;;;;;5092585;28;20509;-65
2023/09/22 02:35:23;;;;;;;11.32;2.80;;;17.80;99.90;;;;;;5092030;28;20043;-65
2023/09/22 02:37:50;;;;;;;16.17;3.30;;;17.70;99.90;;;;;;5091932;28;20012;-65
2023/09/22 02:40:15;;;;;;;12.90;2.75;;;17.70;99.90;;;;;;5092444;28;20541;-65
2023/09/22 02:42:42;;;;;;;11.75;3.58;;;17.60;99.90;;;;;;5092217;28;20034;-65
2023/09/22 02:45:11;;;;;;;10.65;2.80;;;17.70;99.90;;;;;;5092662;28;20020;-64
2023/09/22 02:47:38;;;;;;;15.55;3.40;;;17.70;99.90;;;;;;5092306;28;20692;-64
2023/09/22 02:50:05;;;;;;;15.35;3.72;;;17.70;99.90;;;;;;5092080;28;20108;-65
2023/09/22 02:52:33;;;;;;;11.98;3.13;;;17.80;99.90;;;;;;5092327;28;20023;-64
2023/09/22 02:54:59;;;;;;;10.98;3.60;;;17.70;99.90;;;;;;5092228;28;20032;-65
2023/09/22 02:57:25;;;;;;;11.73;3.95;;;17.70;99.90;;;;;;5091968;28;20036;-65
2023/09/22 02:59:52;;;;;;;14.90;3.90;;;17.70;99.90;;;;;;5091819;28;20032;-64
2023/09/22 03:02:18;;;;;;;17.23;4.68;;;17.70;99.90;;;;;;5092194;28;20066;-65
2023/09/22 03:04:44;;;;;;;14.82;4.03;;;17.70;99.90;;;;;;5091841;28;20052;-65
2023/09/22 03:07:09;;;;;;;13.40;3.67;;;17.80;99.90;;;;;;5091450;28;20052;-65
2023/09/22 03:09:36;;;;;;;14.35;3.47;;;17.70;99.90;;;;;;5091904;28;20077;-65
2023/09/22 03:12:02;;;;;;;10.75;2.88;;;17.50;99.90;;;;;;5092224;28;20398;-65
2023/09/22 03:14:27;;;;;;;11.30;3.20;;;17.50;99.90;;;;;;5091737;28;20025;-65
2023/09/22 03:16:53;;;;;;;10.88;2.92;;;17.40;99.90;;;;;;5091794;28;20031;-65
2023/09/22 03:19:19;;;;;;;11.38;2.60;;;17.50;99.90;;;;;;5091432;28;20028;-65
2023/09/22 03:21:45;;;;;;;8.48;2.80;;;17.40;99.90;;;;;;5091323;28;20600;-64
2023/09/22 03:24:10;;;;;;;12.07;2.85;;;17.30;99.90;;;;;;5091740;28;20035;-65
2023/09/22 03:26:36;;;;;;;12.65;2.92;;;17.50;99.90;;;;;;5091561;28;20039;-64
2023/09/22 03:29:03;;;;;;;11.45;3.25;;;17.60;99.90;;;;;;5091713;28;20062;-64
2023/09/22 03:31:28;;;;;;;14.18;3.63;;;17.70;99.90;;;;;;5091836;28;20093;-65
2023/09/22 03:33:54;;;;;;;16.13;3.88;;;17.60;99.90;;;;;;5091293;28;20024;-65
2023/09/22 03:36:20;;;;;;;13.38;3.38;;;17.60;99.90;;;;;;5091203;28;20398;-64
2023/09/22 03:38:47;;;;;;;14.85;3.35;;;17.60;99.90;;;;;;5091447;28;20032;-65
2023/09/22 03:41:15;;;;;;;13.05;3.70;;;17.50;99.90;;;;;;5091645;28;20031;-65
2023/09/22 03:43:43;;;;;;;16.65;3.88;;;17.50;99.90;;;;;;5090226;28;20390;-66
2023/09/22 03:46:10;;;;;;;12.93;3.63;;;17.30;99.90;;;;;;5091259;28;20024;-65
2023/09/22 03:48:39;;;;;;;17.80;4.20;;;17.30;99.90;;;;;;5091157;28;20036;-65
2023/09/22 03:51:05;;;;;;;17.52;3.92;;;17.20;99.90;;;;;;5090989;28;20028;-65
2023/09/22 03:53:31;;;;;;;16.80;3.90;;;17.20;99.90;;;;;;5091364;28;20398;-65
2023/09/22 03:55:57;;;;;;;16.55;4.18;;;17.30;99.90;;;;;;5091462;28;20024;-65
2023/09/22 03:58:23;;;;;;;16.85;4.13;;;17.20;99.90;;;;;;5091316;28;20020;-65
2023/09/22 04:00:49;;;;;;;14.95;4.00;;;17.00;99.90;;;;;;5091195;28;20036;-65
2023/09/22 04:03:15;;;;;;;12.85;3.35;;;16.80;99.90;;;;;;5090897;28;20032;-65
2023/09/22 04:05:41;;;;;;;18.42;4.22;;;16.70;99.90;;;;;;5090875;28;20089;-65
2023/09/22 04:08:06;;;;;;;16.13;3.80;;;16.60;99.90;;;;;;5090945;28;20132;-65
2023/09/22 04:10:35;;;;;;;15.70;4.18;;;16.50;99.90;;;;;;5091152;28;20024;-65
2023/09/22 04:13:02;;;;;;;16.50;3.72;;;16.40;99.90;;;;;;5091482;28;20036;-65
2023/09/22 04:15:28;;;;;;;14.35;3.45;;;16.20;99.90;;;;;;5090917;28;20051;-65
2023/09/22 04:17:53;;;;;;;15.23;3.90;;;16.10;99.90;;;;;;5090727;28;20024;-65
2023/09/22 04:20:28;;;;;;;16.88;3.80;;;16.10;99.90;;;;;;5090794;28;20016;-65
2023/09/22 04:22:56;;;;;;;14.32;4.05;;;16.00;99.90;;;;;;5091284;28;20036;-65
2023/09/22 04:25:29;;;;;;;17.75;4.20;;;16.00;99.90;;;;;;5090956;28;20031;-65
2023/09/22 04:28:07;;;;;;;18.20;3.80;;;16.00;99.90;;;;;;5090984;28;20401;-65
2023/09/22 04:30:35;;;;;;;22.63;4.28;;;15.90;99.90;;;;;;5091165;28;20100;-65
2023/09/22 04:33:01;;;;;;;13.45;3.90;;;15.90;99.90;;;;;;5090309;28;20345;-65
2023/09/22 04:35:28;;;;;;;16.13;3.97;;;15.90;99.90;;;;;;5090904;28;20505;-65
2023/09/22 04:37:53;;;;;;;18.30;3.90;;;15.90;99.90;;;;;;5090721;28;20111;-65
2023/09/22 04:40:25;;;;;;;13.88;3.65;;;15.90;99.90;;;;;;5091284;28;20103;-66
2023/09/22 04:42:52;;;;;;;13.20;3.67;;;15.80;99.90;;;;;;5090829;28;20039;-68
2023/09/22 04:45:18;;;;;;;18.70;5.07;;;16.00;99.90;;;;;;5091037;28;20020;-65
2023/09/22 04:47:46;;;;;;;17.27;4.28;;;15.90;99.90;;;;;;5090696;28;20081;-66
2023/09/22 04:50:15;;;;;;;17.17;4.07;;;15.80;99.90;;;;;;5091296;28;20020;-65
2023/09/22 04:52:41;;;;;;;13.52;3.60;;;15.80;99.90;;;;;;5090852;28;20063;-66
2023/09/22 04:55:07;;;;;;;14.52;3.88;;;15.80;99.90;;;;;;5090776;28;20020;-65
2023/09/22 04:57:33;;;;;;;13.95;3.80;;;15.90;99.90;;;;;;5090566;28;20028;-65
2023/09/22 04:59:59;;;;;;;16.13;4.18;;;16.00;99.90;;;;;;5093000;28;20458;-65
2023/09/22 05:02:25;;;;;;;19.27;4.50;;;16.30;99.90;;;;;;5093845;28;20040;-65
2023/09/22 05:04:51;;;;;;;19.08;5.30;;;16.60;99.90;;;;;;5094369;28;20459;-65
2023/09/22 05:07:16;;;;;;;18.35;4.70;;;16.80;99.90;;;;;;5094083;28;20078;-66
2023/09/22 05:09:43;;;;;;;17.60;4.80;;;17.00;99.90;;;;;;5094458;28;20017;-66
2023/09/22 05:12:09;;;;;;;17.15;3.80;;;17.00;99.90;;;;;;5094218;28;20020;-65
2023/09/22 05:14:35;;;;;;;15.60;4.00;;;17.10;99.90;;;;;;5093975;28;20418;-66
2023/09/22 05:17:01;;;;;;;17.20;3.88;;;17.10;99.90;;;;;;5094110;28;20024;-65
2023/09/22 05:19:26;;;;;;;13.52;3.45;;;17.10;99.90;;;;;;5094022;28;20031;-65
2023/09/22 05:21:52;;;;;;;19.45;4.25;;;17.00;99.90;;;;;;5093875;28;20031;-65
2023/09/22 05:24:18;;;;;;;17.50;4.65;;;17.10;99.90;;;;;;5094011;28;20036;-65
2023/09/22 05:26:44;;;;;;;23.05;4.57;;;17.10;99.90;;;;;;5093780;28;20114;-65
2023/09/22 05:29:10;;;;;;;17.10;4.18;;;17.00;99.90;;;;;;5093775;28;20067;-63
2023/09/22 05:31:36;;;;;;;17.63;4.45;;;17.00;99.90;;;;;;5093950;28;20467;-65
2023/09/22 05:34:02;;;;;;;18.33;4.68;;;17.00;99.90;;;;;;5093733;28;20061;-65
2023/09/22 05:36:29;;;;;;;18.65;4.28;;;16.80;99.90;;;;;;5093602;28;20020;-64
2023/09/22 05:38:56;;;;;;;18.20;4.13;;;16.70;99.90;;;;;;5093833;28;20028;-65
2023/09/22 05:41:22;;;;;;;20.15;4.75;;;16.60;99.90;;;;;;5093443;28;20173;-65
2023/09/22 05:43:48;;;;;;;15.98;4.07;;;16.50;99.90;;;;;;5093767;28;20099;-65
2023/09/22 05:46:13;;;;;;;16.65;3.83;;;16.50;99.90;;;;;;5092901;28;20478;-64
2023/09/22 05:48:39;;;;;;;13.80;3.83;;;16.50;99.90;;;;;;5093510;28;20031;-65
2023/09/22 05:51:05;;;;;;;10.20;3.40;;;16.40;99.90;;;;;;5093424;28;20039;-65
2023/09/22 05:53:30;;;;;;;15.27;3.40;;;16.50;99.90;;;;;;5093376;28;20106;-64
2023/09/22 05:56:06;;;;;;;13.23;3.55;;;16.40;99.90;;;;;;5093407;28;20057;-64
2023/09/22 05:58:37;;;;;;;10.90;3.20;;;16.40;99.90;;;;;;5093597;28;20021;-65
2023/09/22 06:01:09;;;;;;;9.35;2.65;;;16.40;99.90;;;;;;5092442;28;20513;-64
2023/09/22 06:03:37;;;;;;;9.85;3.00;;;16.40;99.90;;;;;;5092998;28;20036;-65
2023/09/22 06:06:13;;;;;;;16.55;3.47;;;16.30;99.90;;;;;;5093086;28;20032;-64
2023/09/22 06:08:40;;;;;;;16.25;3.78;;;16.20;99.90;;;;;;5093172;28;20048;-65
2023/09/22 06:11:06;;;;;;;14.45;3.50;;;16.10;99.90;;;;;;5091908;28;20042;-64
2023/09/22 06:13:33;;;;;;;10.85;3.17;;;16.00;99.90;;;;;;5092871;28;20024;-66
2023/09/22 06:15:59;;;;;;;11.55;3.20;;;15.90;99.90;;;;;;5092335;28;20027;-65
2023/09/22 06:18:25;;;;;;;14.23;2.90;;;15.90;99.90;;;;;;5093017;28;20414;-66
2023/09/22 06:20:57;;;;;;;13.13;3.35;;;15.90;99.90;;;;;;5092113;28;20028;-64
2023/09/22 06:23:23;;;;;;;10.57;3.05;;;16.00;99.90;;;;;;5092294;28;20111;-65
2023/09/22 06:25:51;;;;;;;14.05;2.97;;;15.90;99.90;;;;;;5092945;28;20095;-65
2023/09/22 06:28:18;;;;;;;12.88;3.20;;;15.90;99.90;;;;;;5092185;28;20054;-64
2023/09/22 06:30:46;;;;;;;11.18;2.90;;;15.90;99.90;;;;;;5092634;28;20031;-64
2023/09/22 06:33:13;;;;;;;16.98;3.80;;;15.90;99.90;;;;;;5092416;28;20024;-63
2023/09/22 06:35:39;;;;;;;14.90;3.45;;;15.90;99.90;;;;;;5092390;28;20111;-64
2023/09/22 06:38:06;;;;;;;14.77;3.55;;;16.10;99.90;;;;;;5092805;28;20059;-64
2023/09/22 06:40:36;;;;;;;12.88;2.78;;;16.20;99.90;;;;;;5092531;28;20441;-65
2023/09/22 06:43:03;;;;;;;11.07;2.55;;;16.40;99.90;;;;;;5092436;28;20028;-66
2023/09/22 06:45:28;;;;;;;12.15;2.92;;;16.40;99.90;;;;;;5092009;28;20107;-66
2023/09/22 06:47:54;;;;;;;14.93;3.00;;;16.60;99.90;;;;;;5092265;28;20107;-66
2023/09/22 06:50:21;;;;;;;10.52;3.00;;;16.50;99.90;;;;;;5092503;28;20025;-65
2023/09/22 06:52:47;;;;;;;9.15;3.05;;;16.50;99.90;;;;;;5092292;28;20482;-64
2023/09/22 06:55:14;;;;;;;9.20;3.00;;;16.60;99.90;;;;;;5092111;28;20077;-63
2023/09/22 06:57:42;;;;;;;9.60;3.05;;;16.60;99.90;;;;;;5092065;28;20023;-65
2023/09/22 07:00:23;;;;;;;11.35;2.60;;;16.70;99.90;;;;;;5091545;28;20028;-64
2023/09/22 07:02:49;;;;;;;8.73;2.60;;;16.60;99.90;;;;;;5091875;28;20044;-65
2023/09/22 07:05:16;;;;;;;9.50;2.40;;;16.50;99.90;;;;;;5092362;28;20028;-64
2023/09/22 07:07:42;;;;;;;8.10;2.25;;;16.40;99.90;;;;;;5091827;28;20079;-64
2023/09/22 07:10:09;;;;;;;8.13;2.20;;;16.40;99.90;;;;;;5091584;28;20490;-64
2023/09/22 07:12:36;;;;;;;9.93;2.97;;;16.30;99.90;;;;;;5091475;28;20474;-65
2023/09/22 07:15:02;;;;;;;7.28;2.53;;;16.20;99.90;;;;;;5092220;28;20451;-65
2023/09/22 07:17:28;;;;;;;9.50;2.72;;;16.20;99.90;;;;;;5091814;28;20048;-66
2023/09/22 07:19:54;;;;;;;10.60;2.67;;;16.10;99.90;;;;;;5091628;28;20063;-66
2023/09/22 07:22:20;;;;;;;8.50;2.70;;;16.10;99.90;;;;;;5091135;28;20081;-65
2023/09/22 07:24:45;;;;;;;10.68;2.60;;;16.10;99.90;;;;;;5091639;28;20397;-65
2023/09/22 07:27:12;;;;;;;7.68;2.55;;;16.10;99.90;;;;;;5091662;28;20052;-65
2023/09/22 07:29:38;;;;;;;9.25;2.72;;;16.00;99.90;;;;;;5091563;28;20062;-65
2023/09/22 07:32:03;;;;;;;8.63;2.40;;;16.00;99.90;;;;;;5091685;28;20016;-65
2023/09/22 07:34:29;;;;;;;7.75;2.42;;;16.00;99.90;;;;;;5091360;28;20474;-65
2023/09/22 07:36:55;;;;;;;11.20;2.80;;;15.90;99.90;;;;;;5091469;28;20068;-64
2023/09/22 07:39:21;;;;;;;10.82;3.00;;;16.00;99.90;;;;;;5091404;28;20024;-64
2023/09/22 07:41:47;;;;;;;17.65;3.83;;;16.00;99.90;;;;;;5091340;28;20051;-64
2023/09/22 07:44:13;;;;;;;14.45;3.63;;;16.00;99.90;;;;;;5091518;28;20427;-64
2023/09/22 07:46:41;;;;;;;15.63;3.53;;;16.10;99.90;;;;;;5091353;28;20426;-64
2023/09/22 07:49:06;;;;;;;12.25;3.05;;;16.20;99.90;;;;;;5091343;28;20493;-64
2023/09/22 07:51:33;;;;;;;12.38;2.97;;;16.20;99.90;;;;;;5091446;28;20103;-64
2023/09/22 07:53:59;;;;;;;10.82;2.85;;;16.10;99.90;;;;;;5091275;28;20032;-64
2023/09/22 07:56:25;;;;;;;12.20;2.60;;;16.10;99.90;;;;;;5090965;28;20754;-64
2023/09/22 07:58:50;;;;;;;12.48;2.95;;;16.00;99.90;;;;;;5091718;28;20032;-64
2023/09/22 08:01:16;;;;;;;9.77;2.60;;;16.00;99.90;;;;;;5090970;28;20036;-63
2023/09/22 08:03:45;;;;;;;8.73;2.05;;;16.00;99.90;;;;;;5091426;28;20390;-63
2023/09/22 08:06:12;;;;;;;9.95;2.55;;;16.00;99.90;;;;;;5090253;28;20406;-63
2023/09/22 08:08:38;;;;;;;10.00;2.70;;;16.00;99.90;;;;;;5090928;28;20127;-64
2023/09/22 08:11:04;;;;;;;9.35;2.92;;;16.00;99.90;;;;;;5090924;28;20035;-64
2023/09/22 08:13:36;;;;;;;8.98;2.35;;;16.00;99.90;;;;;;5091120;28;20047;-63
2023/09/22 08:16:07;;;;;;;6.70;2.15;;;16.20;99.90;;;;;;5091455;28;20110;-64
2023/09/22 08:18:37;;;;;;;8.95;2.42;;;16.50;99.90;;;;;;5091246;28;20016;-64
2023/09/22 08:21:07;;;;;;;9.10;2.05;;;16.80;99.90;;;;;;5091090;28;20017;-63
2023/09/22 08:23:33;;;;;;;8.23;2.17;;;16.90;99.90;;;;;;5090991;28;20032;-63
2023/09/22 08:26:05;;;;;;;9.05;2.50;;;16.90;99.90;;;;;;5090959;28;20034;-63
2023/09/22 08:28:32;;;;;;;11.43;2.35;;;17.10;99.90;;;;;;5091265;28;20085;-63
2023/09/22 08:30:58;;;;;;;10.60;2.25;;;17.20;99.90;;;;;;5090988;28;20016;-63
2023/09/22 08:33:24;;;;;;;6.50;2.30;;;17.20;99.90;;;;;;5090956;28;20035;-63
2023/09/22 08:35:50;;;;;;;11.13;2.03;;;17.20;99.90;;;;;;5094516;28;20406;-63
2023/09/22 08:38:15;;;;;;;9.00;2.40;;;17.20;99.90;;;;;;5094671;28;20027;-63
2023/09/22 08:40:45;;;;;;;8.23;2.67;;;17.30;99.90;;;;;;5094727;28;20027;-63
2023/09/22 08:43:11;;;;;;;11.82;3.17;;;17.40;99.90;;;;;;5094617;28;20043;-63
2023/09/22 08:45:37;;;;;;;9.07;2.55;;;17.40;99.90;;;;;;5094674;28;20065;-63
2023/09/22 08:48:03;;;;;;;10.52;2.70;;;17.30;99.90;;;;;;5094508;28;20024;-63
2023/09/22 08:50:29;;;;;;;12.75;2.90;;;17.10;99.90;;;;;;5095002;28;20103;-63
2023/09/22 08:52:54;;;;;;;10.82;2.72;;;17.10;99.90;;;;;;5094455;28;20514;-64
2023/09/22 08:55:23;;;;;;;10.40;2.88;;;17.00;99.90;;;;;;5094244;28;20035;-63
2023/09/22 08:57:49;;;;;;;8.95;2.50;;;17.00;99.90;;;;;;5094404;28;20443;-63
2023/09/22 09:00:21;;;;;;;9.70;2.47;;;17.10;99.90;;;;;;5094435;28;20498;-63
2023/09/22 09:02:51;;;;;;;7.60;2.28;;;17.10;99.90;;;;;;5094164;28;20517;-63
2023/09/22 09:05:22;;;;;;;9.23;2.35;;;17.20;99.90;;;;;;5093993;28;20060;-64
2023/09/22 09:07:50;;;;;;;7.65;2.20;;;17.40;99.90;;;;;;5094312;28;20036;-63
2023/09/22 09:10:34;;;;;;;8.07;2.05;;;17.50;99.90;;;;;;5093929;28;20036;-63
2023/09/22 09:13:02;;;;;;;6.72;1.92;;;17.40;99.90;;;;;;5094271;28;20115;-63
2023/09/22 09:15:49;;;;;;;6.88;2.08;;;17.40;99.90;;;;;;5094000;28;20039;-63
2023/09/22 09:18:20;;;;;;;5.20;1.70;;;17.30;99.90;;;;;;5093785;28;20036;-64
2023/09/22 09:21:05;;;;;;;6.95;1.90;;;17.40;99.90;;;;;;5092585;28;20497;-63
2023/09/22 09:23:31;;;;;;;6.35;1.65;;;17.40;99.90;;;;;;5093734;28;20043;-63
2023/09/22 09:25:57;;;;;;;5.65;1.67;;;17.50;99.90;;;;;;5094173;28;20020;-63
2023/09/22 09:28:23;;;;;;;5.80;1.85;;;17.40;99.90;;;;;;5093936;28;20024;-63
2023/09/22 09:30:54;;;;;;;6.72;1.67;;;17.30;99.90;;;;;;5093797;28;20356;-63
2023/09/22 09:33:21;;;;;;;5.35;1.90;;;17.30;99.90;;;;;;5093953;28;20069;-62
2023/09/22 09:35:46;;;;;;;5.95;1.65;;;17.30;99.90;;;;;;5093817;28;20398;-63
2023/09/22 09:38:13;;;;;;;6.43;1.75;;;17.30;99.90;;;;;;5093420;28;20024;-63
2023/09/22 09:40:39;;;;;;;5.10;1.45;;;17.30;99.90;;;;;;5093968;28;20119;-63
2023/09/22 09:43:12;;;;;;;3.83;1.50;;;17.40;99.90;;;;;;5093692;28;20131;-63
2023/09/22 09:45:48;;;;;;;5.05;1.50;;;17.40;99.90;;;;;;5093255;28;20478;-63
2023/09/22 09:48:16;;;;;;;5.07;1.30;;;17.40;99.90;;;;;;5093342;28;20487;-63
2023/09/22 09:50:53;;;;;;;4.00;1.52;;;17.30;99.90;;;;;;5093755;28;20050;-63
2023/09/22 09:53:36;;;;;;;4.90;1.38;;;17.40;99.90;;;;;;5093233;28;20020;-63
2023/09/22 09:56:03;;;;;;;4.53;1.57;;;17.80;99.90;;;;;;5093421;28;20081;-62
2023/09/22 09:58:34;;;;;;;3.85;1.40;;;18.00;99.90;;;;;;5093195;28;20020;-62
2023/09/22 10:01:07;;;;;;;4.43;1.50;;;18.10;99.90;;;;;;5093437;28;20114;-62
2023/09/22 10:03:35;;;;;;;4.43;1.60;;;18.30;99.90;;;;;;5093171;28;20123;-63
2023/09/22 10:06:10;;;;;;;3.10;1.15;;;18.50;99.90;;;;;;5092994;28;20035;-62
2023/09/22 10:08:37;;;;;;;4.35;1.35;;;18.60;99.90;;;;;;5092490;28;20051;-63
2023/09/22 10:11:06;;;;;;;4.25;1.50;;;18.80;99.90;;;;;;5093024;28;20038;-63
2023/09/22 10:13:34;;;;;;;5.38;1.40;;;18.90;99.90;;;;;;5092930;28;20024;-62
2023/09/22 10:16:03;;;;;;;5.18;1.80;;;18.90;99.90;;;;;;5093338;28;20031;-63
2023/09/22 10:18:47;;;;;;;3.38;1.30;;;18.90;99.90;;;;;;5092744;28;20440;-63
2023/09/22 10:21:28;;;;;;;4.07;1.40;;;19.00;99.90;;;;;;5092423;28;20100;-63
2023/09/22 10:24:16;;;;;;;4.65;1.50;;;19.10;99.90;;;;;;5092722;28;20032;-63
2023/09/22 10:26:56;;;;;;;4.32;1.65;;;19.20;99.90;;;;;;5092648;28;20069;-63
2023/09/22 10:29:37;;;;;;;5.72;1.70;;;19.10;99.90;;;;;;5092885;28;20028;-63
2023/09/22 10:32:27;;;;;;;5.18;1.60;;;19.00;99.90;;;;;;5092878;28;20024;-63
2023/09/22 10:35:12;;;;;;;4.88;1.30;;;18.90;99.90;;;;;;5092616;28;20032;-63
2023/09/22 10:38:04;;;;;;;4.05;1.40;;;18.80;99.90;;;;;;5092362;28;20050;-63
2023/09/22 10:40:30;;;;;;;4.55;1.40;;;18.80;99.90;;;;;;5092826;28;20334;-63
2023/09/22 10:43:01;;;;;;;5.28;1.70;;;18.80;99.90;;;;;;5092278;28;20051;-63
2023/09/22 10:45:29;;;;;;;6.53;1.42;;;18.80;99.90;;;;;;5092273;28;20094;-63
2023/09/22 10:47:58;;;;;;;6.18;1.70;;;18.70;99.90;;;;;;5092413;28;20046;-63
2023/09/22 10:50:32;;;;;;;4.85;1.42;;;18.80;99.90;;;;;;5091853;28;20038;-62
2023/09/22 10:52:58;;;;;;;;;;;18.80;99.90;;;;;;5092780;28;20115;-63
2023/09/22 10:55:37;;;;;;;6.35;1.90;;;18.80;99.90;;;;;;5092189;28;20482;-62
2023/09/22 10:58:07;;;;;;;3.80;1.42;;;18.90;99.90;;;;;;5091783;28;20035;-63
2023/09/22 11:00:42;;;;;;;3.28;1.40;;;18.80;99.90;;;;;;5092074;28;20016;-63
2023/09/22 11:03:12;;;;;;;6.38;1.85;;;18.80;99.90;;;;;;5092225;28;20043;-62
2023/09/22 11:05:39;;;;;;;5.00;1.70;;;18.80;99.90;;;;;;5091551;28;20024;-62
2023/09/22 11:08:14;;;;;;;5.45;1.73;;;18.80;99.90;;;;;;5091695;28;20059;-63
2023/09/22 11:10:44;;;;;;;4.50;1.38;;;18.90;99.90;;;;;;5092125;28;20553;-62
2023/09/22 11:13:10;;;;;;;3.65;1.52;;;19.00;99.90;;;;;;5092192;28;20027;-62
2023/09/22 11:16:07;;;;;;;6.90;1.67;;;19.00;99.90;;;;;;5091820;28;20028;-62
2023/09/22 11:18:35;;;;;;;3.88;1.50;;;18.90;99.90;;;;;;5086961;28;20039;-62
2023/09/22 11:21:04;;;;;;;3.83;1.58;;;18.90;99.90;;;;;;5091553;28;20058;-62
2023/09/22 11:23:31;;;;;;;4.47;1.40;;;19.00;99.90;;;;;;5092205;28;20479;-62
2023/09/22 11:26:10;;;;;;;4.20;1.42;;;19.10;99.90;;;;;;5091510;28;20502;-62
2023/09/22 11:28:43;;;;;;;4.72;1.65;;;19.30;99.90;;;;;;5091596;28;20020;-62
2023/09/22 11:31:16;;;;;;;6.30;1.60;;;19.50;99.90;;;;;;5091606;28;20032;-62
2023/09/22 11:33:43;;;;;;;3.85;1.52;;;19.60;99.90;;;;;;5091248;28;20439;-62
2023/09/22 11:36:10;;;;;;;3.47;1.33;;;19.60;99.90;;;;;;5091431;28;20485;-62
2023/09/22 11:38:40;;;;;;;5.32;1.48;;;19.80;99.90;;;;;;5091383;28;20429;-62
2023/09/22 11:41:09;;;;;;;3.45;1.63;;;20.00;99.90;;;;;;5091652;28;20036;-62
2023/09/22 11:43:46;;;;;;;4.55;1.55;;;20.00;99.90;;;;;;5091426;28;20076;-62
2023/09/22 11:46:14;;;;;;;4.57;1.52;;;20.10;99.90;;;;;;5091635;28;20077;-62
2023/09/22 11:48:54;;;;;;;4.63;1.45;;;20.30;99.90;;;;;;5091045;28;20076;-62
2023/09/22 11:51:20;;;;;;;5.70;1.50;;;20.40;99.90;;;;;;5091349;28;20023;-63
2023/09/22 11:53:49;;;;;;;2.83;1.48;;;20.30;99.90;;;;;;5091383;28;20028;-63
2023/09/22 11:56:15;;;;;;;6.70;1.77;;;20.30;99.90;;;;;;5091607;28;20568;-62
2023/09/22 11:58:41;;;;;;;5.25;1.42;;;20.50;99.90;;;;;;5091219;28;20024;-63
2023/09/22 12:01:09;;;;;;;9.95;2.45;;;20.50;99.90;;;;;;5090836;28;20092;-62
2023/09/22 12:03:35;;;;;;;9.50;2.47;;;20.10;99.90;;;;;;5091251;28;20039;-63
2023/09/22 12:06:04;;;;;;;8.77;2.38;;;19.80;99.90;;;;;;5091110;28;20073;-63
2023/09/22 12:08:31;;;;;;;6.22;1.70;;;19.60;99.90;;;;;;5091050;28;20060;-62
2023/09/22 12:10:57;;;;;;;7.05;1.20;;;19.40;99.90;;;;;;5095726;28;20035;-62
2023/09/22 12:13:22;;;;;;;6.10;1.45;;;19.40;99.90;;;;;;5095277;28;20016;-62
2023/09/22 12:15:49;;;;;;;5.28;1.27;;;19.50;99.90;;;;;;5094977;28;20498;-63
2023/09/22 12:18:14;;;;;;;8.73;1.63;;;19.60;99.90;;;;;;5095338;28;20051;-63
2023/09/22 12:20:40;;;;;;;7.82;1.65;;;19.70;99.90;;;;;;5094960;28;20477;-62
2023/09/22 12:23:05;;;;;;;6.15;1.70;;;19.70;99.90;;;;;;5094690;28;20047;-63
2023/09/22 12:25:32;;;;;;;6.82;1.90;;;19.70;99.90;;;;;;5095320;28;20031;-62
2023/09/22 12:27:58;;;;;;;5.43;1.55;;;19.80;99.90;;;;;;5094998;28;20050;-63
2023/09/22 12:30:24;;;;;;;4.97;1.63;;;20.00;99.90;;;;;;5094857;28;20514;-64
2023/09/22 12:32:49;;;;;;;4.28;1.80;;;20.00;99.90;;;;;;5095069;28;20024;-63
2023/09/22 12:35:15;;;;;;;4.80;1.60;;;20.20;99.90;;;;;;5094787;28;20548;-63
2023/09/22 12:37:41;;;;;;;7.95;2.10;;;20.20;99.90;;;;;;5094810;28;20062;-63
2023/09/22 12:40:07;;;;;;;7.03;1.80;;;20.10;99.90;;;;;;5095162;28;20081;-63
2023/09/22 12:42:33;;;;;;;6.38;1.83;;;19.80;99.90;;;;;;5094962;28;20032;-63
2023/09/22 12:44:59;;;;;;;7.22;2.10;;;19.60;99.90;;;;;;5094630;28;20031;-63